Latest Weather Observations for Parafield

IDS60801

Issued at 3:01 pm CDT Saturday 3 December 2016 (issued every 30 minutes, with the page automatically refreshed every 10 minutes)

About weather observations | Map of weather stations | Latest weather observations for SA | Other Formats
Station Details ID: 023013 Name: PARAFIELD AIRPORT Lat: -34.80 Lon: 138.63 Height: 9.5 m
Data from the previous 72 hours. | See also: Recent months at Parafield
Date/Time
CDT
Temp
°C
App
Temp
°C
Dew
Point
°C
Rel
Hum
%
Delta-T
°C
Wind Press
QNH
hPa
Press
MSL
hPa
Rain since
9am
mm
Dir  Spd
km/h
Gust
km/h
Spd
kts
Gust
kts
03/02:30pm 31.0 27.4 9.8 27 12.0 SW 19 26 10 14 1010.4 1010.4 0.0
03/02:00pm 31.3 29.3 6.4 21 13.4 ESE 6 11 3 6 1010.5 1010.5 0.0
03/01:30pm 30.8 28.2 6.0 21 13.2 E 9 19 5 10 1010.9 1010.9 0.0
03/01:00pm 29.4 26.3 5.5 22 12.5 N 11 19 6 10 1011.2 1011.2 0.0
03/12:30pm 29.1 25.7 5.9 23 12.2 NNE 13 20 7 11 1011.4 1011.4 0.0
03/12:00pm 27.8 24.8 6.0 25 11.4 NE 11 22 6 12 1011.9 1011.9 0.0
03/11:30am 27.0 24.0 5.9 26 11.0 NNE 11 19 6 10 1012.3 1012.3 0.0
03/11:00am 26.1 22.5 6.7 29 10.2 N 15 19 8 10 1012.6 1012.6 0.0
03/10:30am 25.0 21.2 5.7 29 9.9 NE 15 24 8 13 1012.9 1012.9 0.0
03/10:00am 23.8 20.1 6.1 32 9.0 ENE 15 20 8 11 1012.9 1012.9 0.0
03/09:30am 22.6 19.2 6.0 34 8.4 ENE 13 19 7 10 1013.4 1013.4 0.0
03/09:00am 19.6 17.5 5.6 40 6.9 E 6 9 3 5 1013.9 1013.9 0.0
03/08:30am 18.4 16.0 5.3 42 6.4 ESE 7 9 4 5 1013.9 1013.9 0.0
03/08:00am 17.6 15.2 5.2 44 6.0 SE 7 11 4 6 1013.9 1013.9 0.0
03/07:30am 15.5 13.2 4.8 49 5.0 SE 6 11 3 6 1014.1 1014.1 0.0
03/07:00am 14.6 12.3 4.6 51 4.6 ESE 6 11 3 6 1014.0 1014.0 0.0
03/06:30am 13.1 9.6 3.7 53 4.2 E 11 15 6 8 1013.7 1013.7 0.0
03/06:00am 12.2 9.2 4.2 58 3.6 ESE 9 13 5 7 1013.5 1013.5 0.0
03/05:30am 12.4 9.3 5.6 63 3.2 E 11 15 6 8 1013.5 1013.5 0.0
03/05:00am 12.8 10.2 6.2 64 3.1 ENE 9 17 5 9 1013.4 1013.4 0.0
03/04:30am 12.4 9.4 6.2 66 2.9 E 11 17 6 9 1012.9 1012.9 0.0
03/04:00am 12.6 9.6 6.0 64 3.1 ESE 11 13 6 7 1012.9 1012.9 0.0
03/03:30am 11.9 9.2 5.8 66 2.8 ESE 9 13 5 7 1012.9 1012.9 0.0
03/03:00am 12.6 10.9 6.0 64 3.1 E 4 9 2 5 1013.0 1013.0 0.0
03/02:30am 12.5 10.8 6.1 65 3.0 N 4 7 2 4 1013.2 1013.2 0.0
03/02:00am 12.2 10.2 6.3 67 2.8 E 6 11 3 6 1013.2 1013.2 0.0
03/01:30am 11.6 10.4 6.5 71 2.4 SE 2 7 1 4 1013.5 1013.5 0.0
03/01:00am 12.6 11.5 6.9 68 2.7 E 2 7 1 4 1013.8 1013.8 0.0
03/12:30am 14.0 12.6 7.3 64 3.3 ENE 4 9 2 5 1014.2 1014.2 0.0
03/12:00am 13.5 11.7 7.3 66 3.0 SSE 6 11 3 6 1014.3 1014.3 0.0
 
Date/Time
CDT
Temp
°C
App
Temp
°C
Dew
Point
°C
Rel
Hum
%
Delta-T
°C
Wind Press
QNH
hPa
Press
MSL
hPa
Rain since
9am
mm
Dir  Spd
km/h
Gust
km/h
Spd
kts
Gust
kts
02/11:30pm 13.9 12.2 7.7 66 3.1 SSE 6 11 3 6 1014.4 1014.4 0.0
02/11:00pm 14.2 12.3 7.7 65 3.2 SSE 7 15 4 8 1014.6 1014.6 0.0
02/10:30pm 14.6 13.0 7.9 64 3.3 SE 6 17 3 9 1014.7 1014.7 0.0
02/10:00pm 15.5 11.9 8.3 62 3.6 ESE 17 26 9 14 1014.5 1014.5 0.0
02/09:30pm 15.9 11.9 8.2 60 3.9 SE 19 26 10 14 1014.1 1014.1 0.0
02/09:00pm 16.4 12.4 8.4 59 4.1 SE 19 30 10 16 1014.1 1014.1 0.0
02/08:30pm 17.2 13.2 8.4 56 4.5 SE 19 26 10 14 1014.1 1014.1 0.0
02/08:00pm 18.2 13.7 8.5 53 5.0 SE 22 30 12 16 1013.6 1013.6 0.0
02/07:30pm 19.7 15.3 9.0 50 5.6 SE 22 30 12 16 1013.2 1013.2 0.0
02/07:00pm 21.0 16.3 9.3 47 6.2 SE 24 30 13 16 1012.7 1012.7 0.0
02/06:30pm 22.6 18.5 10.1 45 6.8 SE 22 30 12 16 1012.5 1012.5 0.0
02/06:00pm 23.7 18.8 10.0 42 7.5 SE 26 33 14 18 1012.0 1012.0 0.0
02/05:30pm 23.6 20.2 11.3 46 6.9 WSW 20 26 11 14 1011.9 1011.9 0.0
02/05:00pm 23.1 18.9 11.2 47 6.6 SW 24 32 13 17 1012.3 1012.3 0.0
02/04:30pm 22.8 18.2 11.2 48 6.5 SW 26 32 14 17 1012.5 1012.5 0.0
02/04:00pm 22.2 17.9 10.7 48 6.3 SW 24 35 13 19 1012.5 1012.5 0.0
02/03:30pm 23.3 19.4 10.7 45 7.0 SW 22 35 12 19 1012.9 1012.9 0.0
02/03:00pm 22.6 18.7 10.7 47 6.6 SW 22 33 12 18 1012.9 1012.9 0.0
02/02:30pm 22.7 18.4 10.8 47 6.6 SW 24 33 13 18 1013.0 1013.0 0.0
02/02:00pm 23.1 18.7 10.5 45 6.9 SW 24 33 13 18 1013.2 1013.2 0.0
02/01:30pm 22.5 18.1 10.3 46 6.7 SW 24 35 13 19 1013.4 1013.4 0.0
02/01:00pm 22.1 17.8 10.6 48 6.3 WSW 24 41 13 22 1013.6 1013.6 0.0
02/12:30pm 22.1 18.4 11.5 51 5.9 SW 22 32 12 17 1013.7 1013.7 0.0
02/12:00pm 22.1 18.8 10.9 49 6.2 SW 19 30 10 16 1013.7 1013.7 0.0
02/11:30am 21.9 18.9 10.7 49 6.2 SSW 17 28 9 15 1013.6 1013.6 0.0
02/11:00am 20.5 18.0 10.9 54 5.3 SW 15 20 8 11 1013.8 1013.8 0.0
02/10:30am 21.0 19.0 10.2 50 5.8 SSE 11 17 6 9 1014.1 1014.1 0.0
02/10:00am 19.2 17.1 9.9 55 5.0 SSW 11 20 6 11 1014.2 1014.2 0.0
02/09:30am 19.1 16.3 10.1 56 4.8 S 15 22 8 12 1014.2 1014.2 0.0
02/09:00am 18.1 15.3 10.0 59 4.3 SSE 15 20 8 11 1014.0 1014.0 0.0
02/08:30am 18.0 16.7 10.1 60 4.2 SSE 7 17 4 9 1013.8 1013.8 0.0
02/08:00am 16.8 15.2 10.2 65 3.5 S 9 17 5 9 1013.5 1013.5 0.0
02/07:30am 15.6 14.2 10.8 73 2.5 S 9 13 5 7 1013.1 1013.1 0.0
02/07:00am 13.5 13.9 11.2 86 1.2 CALM 0 0 0 0 1012.8 1012.8 0.0
02/06:30am 10.7 10.7 9.9 95 0.4 CALM 0 0 0 0 1012.6 1012.6 0.0
02/06:00am 10.3 9.8 9.5 95 0.4 S 2 6 1 3 1012.1 1012.1 0.0
02/05:30am 9.5 8.0 8.4 93 0.5 S 6 9 3 5 1011.8 1011.8 0.0
02/05:00am 10.6 9.4 9.4 92 0.6 E 6 7 3 4 1011.6 1011.6 0.0
02/04:30am 10.8 10.2 9.1 89 0.8 ESE 2 6 1 3 1011.1 1011.1 0.0
02/04:00am 11.3 11.2 9.4 88 1.0 CALM 0 0 0 0 1010.9 1010.9 0.0
02/03:30am 11.8 11.0 9.7 87 1.1 SSE 4 7 2 4 1010.5 1010.5 0.0
02/03:00am 12.2 12.3 10.1 87 1.1 CALM 0 6 0 3 1010.3 1010.3 0.0
02/02:30am 11.7 10.5 9.4 86 1.2 SSW 6 7 3 4 1009.7 1009.7 0.0
02/02:00am 12.4 11.1 10.0 85 1.2 S 7 9 4 5 1009.5 1009.5 0.0
02/01:30am 12.9 10.8 9.9 82 1.5 SSW 11 15 6 8 1009.5 1009.5 0.0
02/01:00am 12.8 11.0 9.4 80 1.7 SSE 9 11 5 6 1009.4 1009.4 0.0
02/12:30am 14.1 13.0 10.1 77 2.1 SE 6 7 3 4 1009.6 1009.6 0.0
02/12:00am 13.8 13.8 9.8 77 2.1 CALM 0 0 0 0 1009.6 1009.6 0.0
 
Date/Time
CDT
Temp
°C
App
Temp
°C
Dew
Point
°C
Rel
Hum
%
Delta-T
°C
Wind Press
QNH
hPa
Press
MSL
hPa
Rain since
9am
mm
Dir  Spd
km/h
Gust
km/h
Spd
kts
Gust
kts
01/11:30pm 14.7 14.3 9.9 73 2.5 SW 2 6 1 3 1009.7 1009.7 0.0
01/11:00pm 14.5 13.2 9.9 74 2.4 SW 7 9 4 5 1009.4 1009.4 0.0
01/10:30pm 15.2 14.2 10.2 72 2.6 SW 6 7 3 4 1009.3 1009.3 0.0
01/10:00pm 15.0 13.6 9.4 69 2.9 SSW 7 9 4 5 1009.1 1009.1 0.0
01/09:30pm 15.9 14.6 9.3 65 3.4 SSW 6 7 3 4 1009.0 1009.0 0.0
01/09:00pm 16.4 14.6 9.3 63 3.7 SSW 9 11 5 6 1009.0 1009.0 0.0
01/08:30pm 17.8 15.3 9.7 59 4.3 SSW 13 17 7 9 1009.1 1009.1 0.0
01/08:00pm 18.4 15.6 10.0 58 4.5 SSW 15 20 8 11 1009.1 1009.1 0.0
01/07:30pm 19.0 15.8 9.8 55 4.9 SSW 17 24 9 13 1008.8 1008.8 0.0
01/07:00pm 19.7 16.7 9.3 51 5.5 SSW 15 20 8 11 1008.7 1008.7 0.0
01/06:30pm 20.7 17.0 9.6 49 5.9 SW 19 24 10 13 1008.3 1008.3 0.0
01/06:00pm 20.8 17.0 9.7 49 6.0 SW 20 28 11 15 1007.9 1007.9 0.0
01/05:30pm 21.9 16.2 6.6 37 7.8 SW 26 32 14 17 1007.7 1007.7 0.0
01/05:00pm 25.3 20.9 5.0 27 10.3 WSW 17 28 9 15 1007.4 1007.4 0.0
01/04:30pm 25.5 21.6 3.5 24 10.9 WSW 13 20 7 11 1007.6 1007.6 0.0
01/04:00pm 23.9 20.7 -0.4 20 11.0 SSW 6 11 3 6 1007.6 1007.6 0.0
01/03:30pm 22.6 20.6 6.4 35 8.3 S 6 11 3 6 1007.9 1007.9 0.0
01/03:00pm 20.9 19.8 10.1 50 5.8 WSW 6 9 3 5 1008.0 1008.0 0.0
01/02:30pm 21.1 18.9 10.9 52 5.6 W 13 20 7 11 1008.7 1008.7 0.0
01/02:00pm 21.7 18.7 10.5 49 6.1 W 17 20 9 11 1008.6 1008.6 0.0
01/01:30pm 23.2 21.1 8.1 38 8.0 WNW 9 15 5 8 1008.4 1008.4 0.0
01/01:00pm 23.3 20.3 7.8 37 8.1 W 13 20 7 11 1008.6 1008.6 0.0
01/12:30pm 23.4 20.8 6.2 33 8.8 NNW 9 17 5 9 1008.7 1008.7 0.0
01/12:00pm 22.3 20.5 8.1 40 7.5 NNW 7 13 4 7 1008.5 1008.5 0.0
01/11:30am 21.4 19.3 8.3 43 6.9 N 9 13 5 7 1008.7 1008.7 0.0
01/11:00am 21.2 19.8 8.8 45 6.6 NE 6 13 3 7 1009.1 1009.1 0.0
01/10:30am 19.6 19.0 8.9 50 5.6 SE 2 9 1 5 1009.1 1009.1 0.0
01/10:00am 18.9 16.9 8.8 52 5.3 N 9 13 5 7 1009.0 1009.0 0.0
01/09:30am 18.1 16.9 9.5 57 4.5 NE 6 9 3 5 1009.5 1009.5 0.0
01/09:00am 17.2 16.7 9.4 60 4.1 SW 2 7 1 4 1009.7 1009.7 0.0
01/08:30am 16.2 14.7 9.2 63 3.6 SE 7 11 4 6 1009.8 1009.8 0.0
01/08:00am 15.1 13.8 9.2 68 3.0 SSE 6 9 3 5 1009.9 1009.9 0.0
01/07:30am 13.4 13.2 9.1 75 2.2 CALM 0 4 0 2 1009.9 1009.9 0.0
01/07:00am 11.5 11.3 9.2 86 1.2 CALM 0 0 0 0 1009.8 1009.8 0.0
01/06:30am 10.8 9.1 8.4 85 1.2 ENE 7 9 4 5 1009.3 1009.3 0.0
01/06:00am 10.4 8.8 8.0 85 1.2 NE 6 7 3 4 1009.6 1009.6 0.0
01/05:30am 10.6 9.1 8.4 86 1.1 WNW 6 7 3 4 1009.3 1009.3 0.0
01/05:00am 10.9 10.1 8.1 83 1.4 ESE 2 6 1 3 1008.5 1008.5 0.0
01/04:30am 10.3 8.5 8.1 86 1.1 ESE 7 9 4 5 1008.6 1008.6 0.0
01/04:00am 10.1 8.4 7.5 84 1.2 ESE 6 7 3 4 1009.3 1009.3 0.0
01/03:30am 10.3 9.8 7.7 84 1.3 CALM 0 0 0 0 1009.7 1009.7 0.0
01/03:00am 10.1 8.2 6.6 79 1.6 WNW 6 7 3 4 1009.8 1009.8 0.0
01/02:30am 12.0 11.6 8.1 77 1.9 CALM 0 0 0 0 1009.8 1009.8 0.0
01/02:00am 11.8 10.5 7.7 76 2.0 ESE 4 9 2 5 1009.4 1009.4 0.0
01/01:30am 12.0 10.3 7.5 74 2.2 NNW 6 7 3 4 1009.8 1009.8 0.0
01/01:00am 12.9 11.3 7.8 71 2.5 E 6 11 3 6 1010.0 1010.0 0.0
01/12:30am 12.6 10.8 7.9 73 2.3 NE 7 9 4 5 1010.7 1010.7 0.0
01/12:00am 12.8 12.2 7.3 69 2.7 CALM 0 6 0 3 1011.2 1011.2 0.0
 
Date/Time
CDT
Temp
°C
App
Temp
°C
Dew
Point
°C
Rel
Hum
%
Delta-T
°C
Wind Press
QNH
hPa
Press
MSL
hPa
Rain since
9am
mm
Dir  Spd
km/h
Gust
km/h
Spd
kts
Gust
kts
30/11:30pm 13.3 11.6 7.5 68 2.8 ESE 6 9 3 5 1011.0 1011.0 0.0
30/11:00pm 13.5 10.5 7.7 68 2.9 SE 13 19 7 10 1011.4 1011.4 0.0
30/10:30pm 13.7 11.1 7.7 67 3.0 SE 11 15 6 8 1011.9 1011.9 0.0
30/10:00pm 14.6 11.3 7.9 64 3.3 SE 15 19 8 10 1011.9 1011.9 0.0
30/09:30pm 14.9 11.6 7.9 63 3.5 ESE 15 19 8 10 1011.6 1011.6 0.0
30/09:00pm 15.3 12.4 8.1 62 3.6 SE 13 17 7 9 1011.7 1011.7 0.0
30/08:30pm 16.4 12.4 8.1 58 4.2 SSE 19 22 10 12 1011.2 1011.2 0.0
30/08:00pm 17.8 14.6 8.4 54 4.8 SSE 15 26 8 14 1010.9 1010.9 0.0
30/07:30pm 19.3 15.8 8.9 51 5.5 S 17 26 9 14 1010.4 1010.4 0.0
30/07:00pm 20.3 16.3 9.2 49 5.9 S 20 28 11 15 1009.9 1009.9 0.0
30/06:30pm 20.4 14.6 9.3 49 5.9 SW 30 39 16 21 1009.6 1009.6 0.0
30/06:00pm 20.7 14.9 9.3 48 6.1 SW 30 41 16 22 1009.4 1009.4 0.0
30/05:30pm 20.7 14.3 9.3 48 6.1 SW 33 44 18 24 1009.4 1009.4 0.0
30/05:00pm 21.1 15.0 9.7 48 6.1 SW 32 44 17 24 1009.5 1009.5 0.0
30/04:30pm 21.8 15.7 9.7 46 6.5 SW 32 43 17 23 1009.6 1009.6 0.0
30/04:00pm 21.9 15.6 9.8 46 6.5 SW 33 43 18 23 1009.7 1009.7 0.0
30/03:30pm 21.9 15.7 9.4 45 6.7 SW 32 43 17 23 1009.8 1009.8 0.0

Other Formats:

Comma delimited format used in spreadsheet applications
http://www.bom.gov.au/fwo/IDS60801/IDS60801.95677.axf

JavaScript Object Notation format (JSON) in row-major order
http://www.bom.gov.au/fwo/IDS60801/IDS60801.95677.json